LDDU/DBV METAR and TAF weather

Enter ICAO airport designator
Station Type Date Time Source
LDDU METAR 2018/12/13 22:00 UTC NOAA

LDDU 132200Z 08008KT 9999 BKN040 08/02 Q1012


Station Type Date Time Source
LDDU Decoded METAR 2018/12/13 22:00 UTC NOAA

Dubrovnik / Cilipi, Croatia (LDDU) 42-34N 018-16E 165M
Dec 13, 2018 - 05:00 PM EST / 2018.12.13 2200 UTC
Wind: from the E (080 degrees) at 9 MPH (8 KT):0
Visibility: greater than 7 mile(s):0
Sky conditions: mostly cloudy
Temperature: 46 F (8 C)
Dew Point: 35 F (2 C)
Relative Humidity: 65%
Pressure (altimeter): 29.88 in. Hg (1012 hPa)
ob: LDDU 132200Z 08008KT 9999 BKN040 08/02 Q1012
cycle: 22

Station Type Date Time Source
LDDU TAF 2018/12/13 18:30 UTC NOAA

TAF TAF LDDU 131725Z 1318/1418 09009KT 9999 BKN027 TX12/1412Z TN08/1318Z PROB30
TEMPO 1320/1406 RA PROB40
TEMPO 1406/1418 5000 RA
BECMG 1412/1414 12012KT PROB30
TEMPO 1413/1418 4000 SHRA BKN012 FEW015TCU


Example: see airport list